sensor_id;sensor_type;location;lat;lon;timestamp;pressure;altitude;pressure_sealevel;temperature;humidity
50394;BME280;36308;46.312;25.288;2023-02-21T00:00:51;95853.72;;;4.37;62.10
50394;BME280;36308;46.312;25.288;2023-02-21T00:03:35;95860.31;;;4.34;62.38
50394;BME280;36308;46.312;25.288;2023-02-21T00:06:19;95856.16;;;4.38;62.38
50394;BME280;36308;46.312;25.288;2023-02-21T00:09:03;95848.78;;;4.40;63.61
50394;BME280;36308;46.312;25.288;2023-02-21T00:11:46;95838.72;;;4.42;63.49
50394;BME280;36308;46.312;25.288;2023-02-21T00:14:30;95834.56;;;4.47;63.76
50394;BME280;36308;46.312;25.288;2023-02-21T00:17:14;95828.19;;;4.48;63.87
50394;BME280;36308;46.312;25.288;2023-02-21T00:19:58;95826.13;;;4.50;64.03
50394;BME280;36308;46.312;25.288;2023-02-21T00:22:44;95828.09;;;4.54;64.49
50394;BME280;36308;46.312;25.288;2023-02-21T00:25:28;95824.78;;;4.59;64.57
50394;BME280;36308;46.312;25.288;2023-02-21T00:28:12;95817.59;;;4.59;64.48
50394;BME280;36308;46.312;25.288;2023-02-21T00:30:56;95810.63;;;4.58;64.85
50394;BME280;36308;46.312;25.288;2023-02-21T00:33:40;95814.72;;;4.61;64.40
50394;BME280;36308;46.312;25.288;2023-02-21T00:36:24;95803.03;;;4.62;65.03
50394;BME280;36308;46.312;25.288;2023-02-21T00:39:08;95802.00;;;4.63;64.91
50394;BME280;36308;46.312;25.288;2023-02-21T00:41:51;95804.78;;;4.68;64.96
50394;BME280;36308;46.312;25.288;2023-02-21T00:44:35;95803.41;;;4.65;65.13
50394;BME280;36308;46.312;25.288;2023-02-21T00:47:19;95808.63;;;4.72;65.44
50394;BME280;36308;46.312;25.288;2023-02-21T00:50:05;95788.38;;;4.71;65.82
50394;BME280;36308;46.312;25.288;2023-02-21T00:52:49;95799.13;;;4.76;65.67
50394;BME280;36308;46.312;25.288;2023-02-21T00:55:33;95799.50;;;4.80;66.13
50394;BME280;36308;46.312;25.288;2023-02-21T00:58:20;95793.38;;;4.79;66.16
50394;BME280;36308;46.312;25.288;2023-02-21T01:01:04;95776.47;;;4.85;66.95
50394;BME280;36308;46.312;25.288;2023-02-21T01:03:48;95775.44;;;4.86;67.19
50394;BME280;36308;46.312;25.288;2023-02-21T01:06:33;95769.06;;;4.88;67.24
50394;BME280;36308;46.312;25.288;2023-02-21T01:09:17;95782.50;;;4.93;67.63
50394;BME280;36308;46.312;25.288;2023-02-21T01:12:01;95777.19;;;4.93;67.91
50394;BME280;36308;46.312;25.288;2023-02-21T01:14:45;95765.47;;;4.94;68.37
50394;BME280;36308;46.312;25.288;2023-02-21T01:17:29;95771.38;;;4.96;68.29
50394;BME280;36308;46.312;25.288;2023-02-21T01:20:13;95776.28;;;4.99;68.41
50394;BME280;36308;46.312;25.288;2023-02-21T01:22:57;95772.56;;;5.00;68.84
50394;BME280;36308;46.312;25.288;2023-02-21T01:25:41;95767.22;;;5.00;68.76
50394;BME280;36308;46.312;25.288;2023-02-21T01:28:24;95764.34;;;5.01;68.92
50394;BME280;36308;46.312;25.288;2023-02-21T01:31:08;95744.75;;;4.96;68.98
50394;BME280;36308;46.312;25.288;2023-02-21T01:33:52;95759.38;;;5.05;68.93
50394;BME280;36308;46.312;25.288;2023-02-21T01:36:40;95758.91;;;5.08;68.84
50394;BME280;36308;46.312;25.288;2023-02-21T01:39:24;95737.59;;;5.08;68.83
50394;BME280;36308;46.312;25.288;2023-02-21T01:42:09;95738.63;;;5.07;69.04
50394;BME280;36308;46.312;25.288;2023-02-21T01:45:57;95730.19;;;5.10;69.27
50394;BME280;36308;46.312;25.288;2023-02-21T01:48:19;95698.44;;;4.97;68.90
50394;BME280;36308;46.312;25.288;2023-02-21T01:51:06;95715.81;;;5.11;69.20
50394;BME280;36308;46.312;25.288;2023-02-21T01:53:52;95707.59;;;5.13;69.13
50394;BME280;36308;46.312;25.288;2023-02-21T01:56:37;95698.19;;;5.10;69.01
50394;BME280;36308;46.312;25.288;2023-02-21T01:59:22;95675.16;;;4.92;69.11
50394;BME280;36308;46.312;25.288;2023-02-21T02:04:54;95701.00;;;5.15;69.09
50394;BME280;36308;46.312;25.288;2023-02-21T02:07:38;95691.38;;;5.14;69.16
50394;BME280;36308;46.312;25.288;2023-02-21T02:10:23;95681.75;;;5.13;69.23
50394;BME280;36308;46.312;25.288;2023-02-21T02:15:52;95682.22;;;5.10;70.04
50394;BME280;36308;46.312;25.288;2023-02-21T02:18:30;95680.13;;;5.12;69.41
50394;BME280;36308;46.312;25.288;2023-02-21T02:35:02;95672.94;;;5.01;69.60
50394;BME280;36308;46.312;25.288;2023-02-21T02:42:49;95649.91;;;4.95;69.55
50394;BME280;36308;46.312;25.288;2023-02-21T02:45:39;95654.66;;;4.93;69.69
50394;BME280;36308;46.312;25.288;2023-02-21T02:48:14;95653.00;;;4.92;69.47
50394;BME280;36308;46.312;25.288;2023-02-21T02:50:40;95642.34;;;4.92;69.61
50394;BME280;36308;46.312;25.288;2023-02-21T02:53:08;95637.84;;;4.92;69.77
50394;BME280;36308;46.312;25.288;2023-02-21T02:55:42;95640.75;;;4.91;69.67
50394;BME280;36308;46.312;25.288;2023-02-21T02:58:11;95645.28;;;4.90;69.63
50394;BME280;36308;46.312;25.288;2023-02-21T03:00:41;95644.91;;;4.86;70.16
50394;BME280;36308;46.312;25.288;2023-02-21T03:05:53;95654.75;;;4.86;70.02
50394;BME280;36308;46.312;25.288;2023-02-21T03:08:45;95658.22;;;4.86;70.17
50394;BME280;36308;46.312;25.288;2023-02-21T03:11:18;95648.59;;;4.85;69.89
50394;BME280;36308;46.312;25.288;2023-02-21T03:13:54;95643.75;;;4.82;69.91
50394;BME280;36308;46.312;25.288;2023-02-21T03:16:35;95658.69;;;4.83;70.12
50394;BME280;36308;46.312;25.288;2023-02-21T03:19:11;95657.66;;;4.84;70.25
50394;BME280;36308;46.312;25.288;2023-02-21T03:21:41;95649.88;;;4.83;70.25
50394;BME280;36308;46.312;25.288;2023-02-21T03:24:09;95654.41;;;4.82;70.56
50394;BME280;36308;46.312;25.288;2023-02-21T03:26:39;95643.38;;;4.79;69.99
50394;BME280;36308;46.312;25.288;2023-02-21T03:29:05;95646.63;;;4.81;70.72
50394;BME280;36308;46.312;25.288;2023-02-21T03:31:38;95629.03;;;4.68;70.46
50394;BME280;36308;46.312;25.288;2023-02-21T03:34:04;95660.22;;;4.79;70.58
50394;BME280;36308;46.312;25.288;2023-02-21T03:36:31;95640.97;;;4.77;70.63
50394;BME280;36308;46.312;25.288;2023-02-21T03:38:56;95636.31;;;4.73;69.98
50394;BME280;36308;46.312;25.288;2023-02-21T03:41:22;95638.75;;;4.74;70.74
50394;BME280;36308;46.312;25.288;2023-02-21T03:43:47;95632.84;;;4.72;70.34
50394;BME280;36308;46.312;25.288;2023-02-21T03:46:13;95617.69;;;4.73;70.62
50394;BME280;36308;46.312;25.288;2023-02-21T03:48:38;95622.22;;;4.72;70.90
50394;BME280;36308;46.312;25.288;2023-02-21T03:51:04;95617.34;;;4.69;70.91
50394;BME280;36308;46.312;25.288;2023-02-21T03:53:29;95607.16;;;4.66;70.79
50394;BME280;36308;46.312;25.288;2023-02-21T03:55:55;95599.50;;;4.58;70.44
50394;BME280;36308;46.312;25.288;2023-02-21T03:58:20;95611.66;;;4.65;70.45
50394;BME280;36308;46.312;25.288;2023-02-21T04:00:46;95611.88;;;4.64;70.55
50394;BME280;36308;46.312;25.288;2023-02-21T04:03:12;95615.84;;;4.61;70.81
50394;BME280;36308;46.312;25.288;2023-02-21T04:05:37;95609.94;;;4.59;70.82
50394;BME280;36308;46.312;25.288;2023-02-21T04:08:03;95600.19;;;4.53;70.89
50394;BME280;36308;46.312;25.288;2023-02-21T04:10:28;95605.41;;;4.60;70.67
50394;BME280;36308;46.312;25.288;2023-02-21T04:12:54;95612.00;;;4.57;70.88
50394;BME280;36308;46.312;25.288;2023-02-21T04:15:19;95619.19;;;4.57;70.95
50394;BME280;36308;46.312;25.288;2023-02-21T04:17:45;95611.19;;;4.57;70.84
50394;BME280;36308;46.312;25.288;2023-02-21T04:20:10;95615.94;;;4.55;70.51
50394;BME280;36308;46.312;25.288;2023-02-21T04:22:36;95611.06;;;4.52;70.98
50394;BME280;36308;46.312;25.288;2023-02-21T04:25:01;95611.06;;;4.52;70.73
50394;BME280;36308;46.312;25.288;2023-02-21T04:27:27;95582.00;;;4.38;71.00
50394;BME280;36308;46.312;25.288;2023-02-21T04:29:52;95590.56;;;4.40;70.82
50394;BME280;36308;46.312;25.288;2023-02-21T04:32:18;95605.16;;;4.50;71.12
50394;BME280;36308;46.312;25.288;2023-02-21T04:34:43;95591.59;;;4.39;70.61
50394;BME280;36308;46.312;25.288;2023-02-21T04:37:09;95598.44;;;4.47;70.80
50394;BME280;36308;46.312;25.288;2023-02-21T04:39:34;95602.13;;;4.46;70.69
50394;BME280;36308;46.312;25.288;2023-02-21T04:42:00;95597.66;;;4.47;70.91
50394;BME280;36308;46.312;25.288;2023-02-21T04:44:25;95591.75;;;4.44;70.91
50394;BME280;36308;46.312;25.288;2023-02-21T04:46:51;95589.88;;;4.45;70.62
50394;BME280;36308;46.312;25.288;2023-02-21T04:49:17;95591.16;;;4.42;70.87
50394;BME280;36308;46.312;25.288;2023-02-21T04:51:43;95592.19;;;4.41;70.70
50394;BME280;36308;46.312;25.288;2023-02-21T04:54:08;95578.88;;;4.41;71.10
50394;BME280;36308;46.312;25.288;2023-02-21T04:56:34;95579.69;;;4.42;70.79
50394;BME280;36308;46.312;25.288;2023-02-21T04:59:01;95583.19;;;4.42;70.99
50394;BME280;36308;46.312;25.288;2023-02-21T05:01:29;95583.63;;;4.39;70.91
50394;BME280;36308;46.312;25.288;2023-02-21T05:03:55;95582.59;;;4.40;71.07
50394;BME280;36308;46.312;25.288;2023-02-21T05:06:23;95581.75;;;4.40;71.41
50394;BME280;36308;46.312;25.288;2023-02-21T05:08:49;95580.97;;;4.39;71.56
50394;BME280;36308;46.312;25.288;2023-02-21T05:11:16;95565.47;;;4.36;71.34
50394;BME280;36308;46.312;25.288;2023-02-21T05:13:42;95563.94;;;4.29;71.64
50394;BME280;36308;46.312;25.288;2023-02-21T05:16:07;95567.06;;;4.37;71.59
50394;BME280;36308;46.312;25.288;2023-02-21T05:18:33;95572.38;;;4.37;71.72
50394;BME280;36308;46.312;25.288;2023-02-21T05:20:59;95572.38;;;4.37;71.47
50394;BME280;36308;46.312;25.288;2023-02-21T05:23:25;95570.78;;;4.36;71.65
50394;BME280;36308;46.312;25.288;2023-02-21T05:26:13;95569.72;;;4.37;71.88
50394;BME280;36308;46.312;25.288;2023-02-21T05:28:39;95577.72;;;4.37;71.66
50394;BME280;36308;46.312;25.288;2023-02-21T05:31:05;95573.66;;;4.35;71.52
50394;BME280;36308;46.312;25.288;2023-02-21T05:33:31;95571.22;;;4.33;71.92
50394;BME280;36308;46.312;25.288;2023-02-21T05:35:57;95573.66;;;4.35;71.33
50394;BME280;36308;46.312;25.288;2023-02-21T05:38:24;95582.72;;;4.34;71.51
50394;BME280;36308;46.312;25.288;2023-02-21T05:40:50;95574.94;;;4.32;71.55
50394;BME280;36308;46.312;25.288;2023-02-21T05:43:16;95583.50;;;4.34;71.80
50394;BME280;36308;46.312;25.288;2023-02-21T05:45:42;95572.72;;;4.29;71.59
50394;BME280;36308;46.312;25.288;2023-02-21T05:48:08;95573.78;;;4.28;72.17
50394;BME280;36308;46.312;25.288;2023-02-21T05:50:33;95578.03;;;4.29;72.16
50394;BME280;36308;46.312;25.288;2023-02-21T05:52:59;95583.94;;;4.31;71.98
50394;BME280;36308;46.312;25.288;2023-02-21T05:55:25;95582.94;;;4.32;71.80
50394;BME280;36308;46.312;25.288;2023-02-21T05:57:51;95578.63;;;4.31;71.88
50394;BME280;36308;46.312;25.288;2023-02-21T06:00:24;95574.94;;;4.32;72.35
50394;BME280;36308;46.312;25.288;2023-02-21T06:02:50;95585.59;;;4.32;72.48
50394;BME280;36308;46.312;25.288;2023-02-21T06:05:17;95588.84;;;4.34;72.41
50394;BME280;36308;46.312;25.288;2023-02-21T06:07:43;95592.53;;;4.33;71.97
50394;BME280;36308;46.312;25.288;2023-02-21T06:10:09;95594.16;;;4.34;72.09
50394;BME280;36308;46.312;25.288;2023-02-21T06:12:35;95586.38;;;4.33;72.41
50394;BME280;36308;46.312;25.288;2023-02-21T06:15:01;95590.44;;;4.35;72.55
50394;BME280;36308;46.312;25.288;2023-02-21T06:17:26;95598.41;;;4.35;72.51
50394;BME280;36308;46.312;25.288;2023-02-21T06:19:55;95586.50;;;4.26;72.11
50394;BME280;36308;46.312;25.288;2023-02-21T06:22:21;95593.94;;;4.36;72.92
50394;BME280;36308;46.312;25.288;2023-02-21T06:24:46;95596.59;;;4.36;72.44
50394;BME280;36308;46.312;25.288;2023-02-21T06:27:12;95595.75;;;4.35;72.56
50394;BME280;36308;46.312;25.288;2023-02-21T06:29:39;95596.94;;;4.39;72.83
50394;BME280;36308;46.312;25.288;2023-02-21T06:32:05;95603.88;;;4.40;72.40
50394;BME280;36308;46.312;25.288;2023-02-21T06:34:31;95584.31;;;4.35;72.58
50394;BME280;36308;46.312;25.288;2023-02-21T06:36:56;95592.53;;;4.45;72.66
50394;BME280;36308;46.312;25.288;2023-02-21T06:39:22;95600.88;;;4.49;72.61
50394;BME280;36308;46.312;25.288;2023-02-21T06:41:49;95597.75;;;4.52;72.38
50394;BME280;36308;46.312;25.288;2023-02-21T06:44:15;95592.44;;;4.52;72.28
50394;BME280;36308;46.312;25.288;2023-02-21T06:46:41;95597.53;;;4.53;72.58
50394;BME280;36308;46.312;25.288;2023-02-21T06:49:08;95607.47;;;4.58;72.67
50394;BME280;36308;46.312;25.288;2023-02-21T06:51:39;95610.94;;;4.58;72.85
50394;BME280;36308;46.312;25.288;2023-02-21T06:54:06;95602.28;;;4.63;72.53
50394;BME280;36308;46.312;25.288;2023-02-21T06:56:34;95603.91;;;4.64;72.33
50394;BME280;36308;46.312;25.288;2023-02-21T06:59:00;95602.41;;;4.68;72.62
50394;BME280;36308;46.312;25.288;2023-02-21T07:01:27;95583.16;;;4.54;72.45
50394;BME280;36308;46.312;25.288;2023-02-21T07:03:54;95616.44;;;4.75;72.43
50394;BME280;36308;46.312;25.288;2023-02-21T07:06:20;95609.03;;;4.77;72.84
50394;BME280;36308;46.312;25.288;2023-02-21T07:08:45;95617.59;;;4.79;72.54
50394;BME280;36308;46.312;25.288;2023-02-21T07:11:12;95595.56;;;4.72;73.08
50394;BME280;36308;46.312;25.288;2023-02-21T07:13:38;95622.31;;;4.89;72.61
50394;BME280;36308;46.312;25.288;2023-02-21T07:16:04;95603.22;;;4.80;72.97
50394;BME280;36308;46.312;25.288;2023-02-21T07:18:29;95628.09;;;4.98;72.72
50394;BME280;36308;46.312;25.288;2023-02-21T07:20:55;95626.59;;;5.02;72.67
50394;BME280;36308;46.312;25.288;2023-02-21T07:23:21;95624.06;;;5.07;72.72
50394;BME280;36308;46.312;25.288;2023-02-21T07:25:47;95612.25;;;5.03;72.61
50394;BME280;36308;46.312;25.288;2023-02-21T07:28:13;95622.66;;;5.16;73.22
50394;BME280;36308;46.312;25.288;2023-02-21T07:30:38;95618.34;;;5.27;73.32
50394;BME280;36308;46.312;25.288;2023-02-21T07:33:04;95617.19;;;5.35;73.62
50394;BME280;36308;46.312;25.288;2023-02-21T07:35:29;95623.78;;;5.44;73.30
50394;BME280;36308;46.312;25.288;2023-02-21T07:37:55;95597.59;;;5.41;73.15
50394;BME280;36308;46.312;25.288;2023-02-21T07:40:20;95618.31;;;5.62;73.23
50394;BME280;36308;46.312;25.288;2023-02-21T07:42:46;95625.69;;;5.72;73.30
50394;BME280;36308;46.312;25.288;2023-02-21T07:45:14;95617.06;;;5.82;73.04
50394;BME280;36308;46.312;25.288;2023-02-21T07:47:40;95624.81;;;5.95;72.96
50394;BME280;36308;46.312;25.288;2023-02-21T07:50:08;95617.56;;;6.07;72.69
50394;BME280;36308;46.312;25.288;2023-02-21T07:52:34;95602.22;;;6.15;72.37
50394;BME280;36308;46.312;25.288;2023-02-21T07:55:00;95608.56;;;6.25;72.14
50394;BME280;36308;46.312;25.288;2023-02-21T07:57:26;95604.69;;;6.33;71.33
50394;BME280;36308;46.312;25.288;2023-02-21T07:59:51;95602.44;;;6.42;71.52
50394;BME280;36308;46.312;25.288;2023-02-21T08:02:17;95591.56;;;6.48;70.87
50394;BME280;36308;46.312;25.288;2023-02-21T08:04:42;95603.72;;;6.56;71.25
50394;BME280;36308;46.312;25.288;2023-02-21T08:07:08;95595.53;;;6.63;70.93
50394;BME280;36308;46.312;25.288;2023-02-21T08:09:34;95595.63;;;6.68;70.46
50394;BME280;36308;46.312;25.288;2023-02-21T08:12:01;95593.09;;;6.78;69.78
50394;BME280;36308;46.312;25.288;2023-02-21T08:14:26;95569.06;;;6.78;69.20
50394;BME280;36308;46.312;25.288;2023-02-21T08:16:52;95546.06;;;6.77;68.78
50394;BME280;36308;46.312;25.288;2023-02-21T08:19:17;95573.78;;;7.10;68.04
50394;BME280;36308;46.312;25.288;2023-02-21T08:21:44;95584.13;;;7.23;68.14
50394;BME280;36308;46.312;25.288;2023-02-21T08:24:11;95577.88;;;7.35;67.39
50394;BME280;36308;46.312;25.288;2023-02-21T08:26:37;95572.09;;;7.43;67.04
50394;BME280;36308;46.312;25.288;2023-02-21T08:29:02;95564.66;;;7.50;65.40
50394;BME280;36308;46.312;25.288;2023-02-21T08:31:28;95557.31;;;7.62;65.15
50394;BME280;36308;46.312;25.288;2023-02-21T08:33:53;95567.34;;;7.72;64.96
50394;BME280;36308;46.312;25.288;2023-02-21T08:36:19;95563.38;;;7.80;64.64
50394;BME280;36308;46.312;25.288;2023-02-21T08:38:45;95572.59;;;7.89;64.65
50394;BME280;36308;46.312;25.288;2023-02-21T08:41:10;95551.22;;;7.94;63.64
50394;BME280;36308;46.312;25.288;2023-02-21T08:43:37;95550.28;;;8.05;63.79
50394;BME280;36308;46.312;25.288;2023-02-21T08:46:03;95544.41;;;8.08;63.83
50394;BME280;36308;46.312;25.288;2023-02-21T08:48:29;95549.38;;;8.22;63.61
50394;BME280;36308;46.312;25.288;2023-02-21T08:50:54;95559.06;;;8.28;63.58
50394;BME280;36308;46.312;25.288;2023-02-21T08:53:19;95543.81;;;8.34;61.90
50394;BME280;36308;46.312;25.288;2023-02-21T08:55:45;95547.94;;;8.41;61.60
50394;BME280;36308;46.312;25.288;2023-02-21T08:58:11;95539.94;;;8.46;61.91
50394;BME280;36308;46.312;25.288;2023-02-21T09:00:37;95548.56;;;8.54;61.50
50394;BME280;36308;46.312;25.288;2023-02-21T09:03:03;95540.56;;;8.59;61.35
50394;BME280;36308;46.312;25.288;2023-02-21T09:05:29;95526.91;;;8.55;61.37
50394;BME280;36308;46.312;25.288;2023-02-21T09:07:57;95525.03;;;8.61;61.08
50394;BME280;36308;46.312;25.288;2023-02-21T09:10:32;95535.34;;;8.74;61.00
50394;BME280;36308;46.312;25.288;2023-02-21T09:12:59;95543.38;;;8.79;60.89
50394;BME280;36308;46.312;25.288;2023-02-21T09:15:24;95539.13;;;8.83;60.96
50394;BME280;36308;46.312;25.288;2023-02-21T09:17:50;95500.97;;;8.66;60.67
50394;BME280;36308;46.312;25.288;2023-02-21T09:20:20;95533.84;;;8.94;60.67
50394;BME280;36308;46.312;25.288;2023-02-21T09:22:46;95521.22;;;8.89;60.84
50394;BME280;36308;46.312;25.288;2023-02-21T09:25:14;95522.88;;;9.00;61.02
50394;BME280;36308;46.312;25.288;2023-02-21T09:27:40;95528.81;;;9.07;60.91
50394;BME280;36308;46.312;25.288;2023-02-21T09:30:12;95541.22;;;9.19;60.78
50394;BME280;36308;46.312;25.288;2023-02-21T09:32:38;95508.72;;;9.05;60.85
50394;BME280;36308;46.312;25.288;2023-02-21T09:35:04;95533.47;;;9.22;60.17
50394;BME280;36308;46.312;25.288;2023-02-21T09:37:30;95540.50;;;9.39;60.18
50394;BME280;36308;46.312;25.288;2023-02-21T09:39:57;95543.19;;;9.44;59.43
50394;BME280;36308;46.312;25.288;2023-02-21T09:42:27;95550.75;;;9.52;59.45
50394;BME280;36308;46.312;25.288;2023-02-21T09:44:53;95549.97;;;9.62;58.95
50394;BME280;36308;46.312;25.288;2023-02-21T09:47:31;95549.72;;;9.68;58.92
50394;BME280;36308;46.312;25.288;2023-02-21T09:50:05;95548.69;;;9.75;57.86
50394;BME280;36308;46.312;25.288;2023-02-21T09:52:38;95533.66;;;9.79;57.70
50394;BME280;36308;46.312;25.288;2023-02-21T09:57:33;95499.53;;;9.64;57.65
50394;BME280;36308;46.312;25.288;2023-02-21T10:00:00;95533.41;;;9.85;57.20
50394;BME280;36308;46.312;25.288;2023-02-21T10:02:41;95521.34;;;9.88;57.16
50394;BME280;36308;46.312;25.288;2023-02-21T10:06:27;95523.50;;;9.96;57.03
50394;BME280;36308;46.312;25.288;2023-02-21T10:08:48;95525.91;;;9.98;56.25
50394;BME280;36308;46.312;25.288;2023-02-21T10:11:38;95523.50;;;9.96;55.87
50394;BME280;36308;46.312;25.288;2023-02-21T10:14:36;95516.25;;;9.97;55.43
50394;BME280;36308;46.312;25.288;2023-02-21T10:19:44;95525.09;;;9.97;56.06
50394;BME280;36308;46.312;25.288;2023-02-21T10:22:23;95507.66;;;10.00;56.47
50394;BME280;36308;46.312;25.288;2023-02-21T10:24:51;95523.00;;;10.04;56.75
50394;BME280;36308;46.312;25.288;2023-02-21T10:27:25;95507.38;;;10.06;56.57
50394;BME280;36308;46.312;25.288;2023-02-21T10:30:02;95511.16;;;10.16;56.66
50394;BME280;36308;46.312;25.288;2023-02-21T10:32:30;95474.09;;;10.02;57.19
50394;BME280;36308;46.312;25.288;2023-02-21T10:34:56;95507.72;;;10.30;56.54
50394;BME280;36308;46.312;25.288;2023-02-21T10:37:34;95505.28;;;10.39;56.67
50394;BME280;36308;46.312;25.288;2023-02-21T10:48:46;95496.69;;;10.58;56.32
50394;BME280;36308;46.312;25.288;2023-02-21T10:51:15;95495.63;;;10.59;56.15
50394;BME280;36308;46.312;25.288;2023-02-21T10:53:45;95502.06;;;10.58;56.38
50394;BME280;36308;46.312;25.288;2023-02-21T11:03:56;95503.16;;;10.57;55.51
50394;BME280;36308;46.312;25.288;2023-02-21T11:06:32;95469.81;;;10.37;55.58
50394;BME280;36308;46.312;25.288;2023-02-21T11:08:59;95492.66;;;10.45;56.10
50394;BME280;36308;46.312;25.288;2023-02-21T11:11:36;95507.44;;;10.52;55.77
50394;BME280;36308;46.312;25.288;2023-02-21T11:14:18;95478.41;;;10.39;55.83
50394;BME280;36308;46.312;25.288;2023-02-21T11:19:50;95498.84;;;10.45;55.62
50394;BME280;36308;46.312;25.288;2023-02-21T11:25:11;95503.13;;;10.41;56.44
50394;BME280;36308;46.312;25.288;2023-02-21T11:27:42;95489.16;;;10.39;55.72
50394;BME280;36308;46.312;25.288;2023-02-21T11:30:20;95495.63;;;10.38;56.48
50394;BME280;36308;46.312;25.288;2023-02-21T11:32:51;95502.06;;;10.37;56.13
50394;BME280;36308;46.312;25.288;2023-02-21T11:35:41;95500.47;;;10.36;56.48
50394;BME280;36308;46.312;25.288;2023-02-21T11:38:34;95502.63;;;10.34;55.83
50394;BME280;36308;46.312;25.288;2023-02-21T11:41:02;95488.59;;;10.22;56.30
50394;BME280;36308;46.312;25.288;2023-02-21T11:43:32;95501.53;;;10.30;55.95
50394;BME280;36308;46.312;25.288;2023-02-21T11:46:17;95494.50;;;10.29;56.46
50394;BME280;36308;46.312;25.288;2023-02-21T11:49:14;95499.34;;;10.27;56.49
50394;BME280;36308;46.312;25.288;2023-02-21T11:52:01;95503.91;;;10.26;56.65
50394;BME280;36308;46.312;25.288;2023-02-21T11:54:28;95498.81;;;10.20;56.21
50394;BME280;36308;46.312;25.288;2023-02-21T12:16:54;95495.06;;;10.16;55.38
50394;BME280;36308;46.312;25.288;2023-02-21T12:24:54;95498.53;;;10.16;55.88
50394;BME280;36308;46.312;25.288;2023-02-21T12:49:05;95503.09;;;10.10;56.10
50394;BME280;36308;46.312;25.288;2023-02-21T12:51:41;95476.78;;;9.97;55.60
50394;BME280;36308;46.312;25.288;2023-02-21T12:54:14;95482.16;;;9.97;56.28
50394;BME280;36308;46.312;25.288;2023-02-21T12:56:48;95499.31;;;10.06;56.13
50394;BME280;36308;46.312;25.288;2023-02-21T12:59:26;95490.75;;;10.09;57.00
50394;BME280;36308;46.312;25.288;2023-02-21T13:02:26;95496.13;;;10.09;55.94
50394;BME280;36308;46.312;25.288;2023-02-21T13:04:57;95497.75;;;10.00;56.07
50394;BME280;36308;46.312;25.288;2023-02-21T13:10:14;95500.97;;;10.02;56.19
50394;BME280;36308;46.312;25.288;2023-02-21T13:13:06;95508.72;;;10.04;57.00
50394;BME280;36308;46.312;25.288;2023-02-21T13:15:34;95504.72;;;10.01;56.50
50394;BME280;36308;46.312;25.288;2023-02-21T13:18:05;95502.56;;;9.98;56.81
50394;BME280;36308;46.312;25.288;2023-02-21T13:20:36;95512.22;;;9.99;56.87
50394;BME280;36308;46.312;25.288;2023-02-21T13:23:21;95518.69;;;9.98;56.77
50394;BME280;36308;46.312;25.288;2023-02-21T13:28:31;95501.47;;;9.89;57.44
50394;BME280;36308;46.312;25.288;2023-02-21T13:31:04;95510.63;;;9.98;56.99
50394;BME280;36308;46.312;25.288;2023-02-21T13:33:40;95518.94;;;9.97;57.29
50394;BME280;36308;46.312;25.288;2023-02-21T13:41:28;95530.19;;;9.94;57.06
50394;BME280;36308;46.312;25.288;2023-02-21T13:43:55;95479.66;;;9.65;57.13
50394;BME280;36308;46.312;25.288;2023-02-21T13:51:52;95533.13;;;9.87;57.55
50394;BME280;36308;46.312;25.288;2023-02-21T13:54:23;95528.31;;;9.84;58.23
50394;BME280;36308;46.312;25.288;2023-02-21T13:56:50;95540.13;;;9.83;57.48
50394;BME280;36308;46.312;25.288;2023-02-21T14:01:51;95519.19;;;9.80;57.98
50394;BME280;36308;46.312;25.288;2023-02-21T14:04:49;95526.94;;;9.81;58.48
50394;BME280;36308;46.312;25.288;2023-02-21T14:08:01;95527.78;;;9.82;58.24
50394;BME280;36308;46.312;25.288;2023-02-21T14:13:53;95512.19;;;9.79;58.73
50394;BME280;36308;46.312;25.288;2023-02-21T14:16:44;95528.03;;;9.80;57.67
50394;BME280;36308;46.312;25.288;2023-02-21T14:19:29;95532.59;;;9.80;58.73
50394;BME280;36308;46.312;25.288;2023-02-21T14:24:34;95520.50;;;9.77;58.39
50394;BME280;36308;46.312;25.288;2023-02-21T14:32:36;95519.19;;;9.80;58.39
50394;BME280;36308;46.312;25.288;2023-02-21T14:35:32;95519.19;;;9.80;58.92
50394;BME280;36308;46.312;25.288;2023-02-21T14:38:31;95518.91;;;9.86;58.89
50394;BME280;36308;46.312;25.288;2023-02-21T14:41:27;95517.56;;;9.89;59.23
50394;BME280;36308;46.312;25.288;2023-02-21T14:52:54;95524.31;;;9.97;58.89
50394;BME280;36308;46.312;25.288;2023-02-21T14:55:49;95539.63;;;10.06;59.09
50394;BME280;36308;46.312;25.288;2023-02-21T14:58:32;95532.94;;;10.09;58.96
50394;BME280;36308;46.312;25.288;2023-02-21T15:03:44;95538.53;;;10.12;58.76
50394;BME280;36308;46.312;25.288;2023-02-21T15:06:16;95538.03;;;10.16;59.18
50394;BME280;36308;46.312;25.288;2023-02-21T15:08:47;95536.94;;;10.17;59.37
50394;BME280;36308;46.312;25.288;2023-02-21T15:11:27;95538.81;;;10.16;58.90
50394;BME280;36308;46.312;25.288;2023-02-21T15:16:55;95539.91;;;10.20;59.39
50394;BME280;36308;46.312;25.288;2023-02-21T15:24:38;95546.63;;;10.18;59.18
50394;BME280;36308;46.312;25.288;2023-02-21T15:29:40;95551.97;;;10.12;58.76
50394;BME280;36308;46.312;25.288;2023-02-21T15:32:06;95470.25;;;9.62;59.03
50394;BME280;36308;46.312;25.288;2023-02-21T15:34:38;95560.84;;;10.08;58.68
50394;BME280;36308;46.312;25.288;2023-02-21T15:37:22;95530.72;;;9.85;58.54
50394;BME280;36308;46.312;25.288;2023-02-21T15:40:02;95553.59;;;9.98;58.74
50394;BME280;36308;46.312;25.288;2023-02-21T15:42:38;95570.25;;;10.00;58.78
50394;BME280;36308;46.312;25.288;2023-02-21T15:45:11;95570.22;;;9.95;59.04
50394;BME280;36308;46.312;25.288;2023-02-21T15:47:41;95583.09;;;9.93;59.65
50394;BME280;36308;46.312;25.288;2023-02-21T15:50:29;95581.22;;;9.88;59.02
50394;BME280;36308;46.312;25.288;2023-02-21T15:55:34;95524.44;;;9.49;59.55
50394;BME280;36308;46.312;25.288;2023-02-21T15:58:12;95525.50;;;9.43;59.64
50394;BME280;36308;46.312;25.288;2023-02-21T16:00:43;95533.00;;;9.41;59.84
50394;BME280;36308;46.312;25.288;2023-02-21T16:03:30;95591.88;;;9.68;59.30